sensor_id;sensor_type;location;lat;lon;timestamp;P1;durP1;ratioP1;P2;durP2;ratioP2
20870;SDS011;10595;51.218;3.452;2023-05-15T00:01:38;46.30;;;27.83;;
20870;SDS011;10595;51.218;3.452;2023-05-15T00:04:04;47.97;;;28.27;;
20870;SDS011;10595;51.218;3.452;2023-05-15T00:06:30;45.43;;;26.40;;
20870;SDS011;10595;51.218;3.452;2023-05-15T00:08:56;43.47;;;26.43;;
20870;SDS011;10595;51.218;3.452;2023-05-15T00:11:22;45.63;;;27.07;;
20870;SDS011;10595;51.218;3.452;2023-05-15T00:13:51;48.00;;;27.57;;
20870;SDS011;10595;51.218;3.452;2023-05-15T00:16:17;49.27;;;28.93;;
20870;SDS011;10595;51.218;3.452;2023-05-15T00:18:43;48.77;;;29.20;;
20870;SDS011;10595;51.218;3.452;2023-05-15T00:21:09;48.40;;;29.57;;
20870;SDS011;10595;51.218;3.452;2023-05-15T00:23:35;48.43;;;27.63;;
20870;SDS011;10595;51.218;3.452;2023-05-15T00:26:01;46.73;;;29.37;;
20870;SDS011;10595;51.218;3.452;2023-05-15T00:28:28;49.77;;;28.50;;
20870;SDS011;10595;51.218;3.452;2023-05-15T00:30:54;49.93;;;29.03;;
20870;SDS011;10595;51.218;3.452;2023-05-15T00:33:20;52.90;;;30.40;;
20870;SDS011;10595;51.218;3.452;2023-05-15T00:35:46;52.77;;;29.90;;
20870;SDS011;10595;51.218;3.452;2023-05-15T00:38:12;49.07;;;29.53;;
20870;SDS011;10595;51.218;3.452;2023-05-15T00:40:38;50.37;;;30.27;;
20870;SDS011;10595;51.218;3.452;2023-05-15T00:43:04;51.53;;;29.57;;
20870;SDS011;10595;51.218;3.452;2023-05-15T00:45:30;50.90;;;29.03;;
20870;SDS011;10595;51.218;3.452;2023-05-15T00:47:57;50.27;;;28.63;;
20870;SDS011;10595;51.218;3.452;2023-05-15T00:50:23;51.20;;;29.83;;
20870;SDS011;10595;51.218;3.452;2023-05-15T00:52:49;54.33;;;30.30;;
20870;SDS011;10595;51.218;3.452;2023-05-15T00:55:15;48.50;;;28.83;;
20870;SDS011;10595;51.218;3.452;2023-05-15T00:57:42;48.80;;;29.63;;
20870;SDS011;10595;51.218;3.452;2023-05-15T01:00:08;49.93;;;29.57;;
20870;SDS011;10595;51.218;3.452;2023-05-15T01:02:35;54.77;;;31.70;;
20870;SDS011;10595;51.218;3.452;2023-05-15T01:05:02;54.97;;;31.07;;
20870;SDS011;10595;51.218;3.452;2023-05-15T01:07:32;56.67;;;31.07;;
20870;SDS011;10595;51.218;3.452;2023-05-15T01:10:00;55.80;;;31.03;;
20870;SDS011;10595;51.218;3.452;2023-05-15T01:12:26;54.30;;;31.20;;
20870;SDS011;10595;51.218;3.452;2023-05-15T01:14:55;55.23;;;31.07;;
20870;SDS011;10595;51.218;3.452;2023-05-15T01:17:21;57.97;;;31.20;;
20870;SDS011;10595;51.218;3.452;2023-05-15T01:19:47;61.87;;;31.93;;
20870;SDS011;10595;51.218;3.452;2023-05-15T01:22:21;58.63;;;32.50;;
20870;SDS011;10595;51.218;3.452;2023-05-15T01:27:35;72.00;;;36.67;;
20870;SDS011;10595;51.218;3.452;2023-05-15T01:30:13;72.43;;;37.60;;
20870;SDS011;10595;51.218;3.452;2023-05-15T01:35:30;86.70;;;39.37;;
20870;SDS011;10595;51.218;3.452;2023-05-15T01:40:35;89.90;;;41.37;;
20870;SDS011;10595;51.218;3.452;2023-05-15T01:43:04;88.17;;;40.87;;
20870;SDS011;10595;51.218;3.452;2023-05-15T01:45:33;93.57;;;44.57;;
20870;SDS011;10595;51.218;3.452;2023-05-15T01:48:00;96.53;;;43.37;;
20870;SDS011;10595;51.218;3.452;2023-05-15T01:50:26;93.73;;;43.67;;
20870;SDS011;10595;51.218;3.452;2023-05-15T01:52:55;97.30;;;43.47;;
20870;SDS011;10595;51.218;3.452;2023-05-15T01:55:23;102.80;;;45.67;;
20870;SDS011;10595;51.218;3.452;2023-05-15T01:57:50;96.57;;;42.77;;
20870;SDS011;10595;51.218;3.452;2023-05-15T02:00:17;97.57;;;44.40;;
20870;SDS011;10595;51.218;3.452;2023-05-15T02:02:43;99.10;;;43.60;;
20870;SDS011;10595;51.218;3.452;2023-05-15T02:05:11;99.67;;;44.57;;
20870;SDS011;10595;51.218;3.452;2023-05-15T02:07:37;98.40;;;43.17;;
20870;SDS011;10595;51.218;3.452;2023-05-15T02:10:03;93.50;;;42.13;;
20870;SDS011;10595;51.218;3.452;2023-05-15T02:12:30;102.40;;;44.30;;
20870;SDS011;10595;51.218;3.452;2023-05-15T02:14:56;101.50;;;43.93;;
20870;SDS011;10595;51.218;3.452;2023-05-15T02:17:23;99.10;;;42.57;;
20870;SDS011;10595;51.218;3.452;2023-05-15T02:19:49;98.60;;;42.10;;
20870;SDS011;10595;51.218;3.452;2023-05-15T02:22:15;98.70;;;42.93;;
20870;SDS011;10595;51.218;3.452;2023-05-15T02:24:41;91.37;;;39.97;;
20870;SDS011;10595;51.218;3.452;2023-05-15T02:27:11;97.10;;;41.00;;
20870;SDS011;10595;51.218;3.452;2023-05-15T02:29:43;100.93;;;40.07;;
20870;SDS011;10595;51.218;3.452;2023-05-15T02:34:44;92.97;;;37.67;;
20870;SDS011;10595;51.218;3.452;2023-05-15T02:37:15;96.60;;;39.67;;
20870;SDS011;10595;51.218;3.452;2023-05-15T02:39:43;88.73;;;38.53;;
20870;SDS011;10595;51.218;3.452;2023-05-15T02:42:10;101.90;;;41.87;;
20870;SDS011;10595;51.218;3.452;2023-05-15T02:44:37;103.37;;;43.80;;
20870;SDS011;10595;51.218;3.452;2023-05-15T02:47:03;102.10;;;41.93;;
20870;SDS011;10595;51.218;3.452;2023-05-15T02:49:30;99.23;;;42.83;;
20870;SDS011;10595;51.218;3.452;2023-05-15T02:51:56;98.13;;;41.53;;
20870;SDS011;10595;51.218;3.452;2023-05-15T02:54:22;103.03;;;41.50;;
20870;SDS011;10595;51.218;3.452;2023-05-15T02:56:48;97.07;;;41.00;;
20870;SDS011;10595;51.218;3.452;2023-05-15T02:59:15;102.20;;;42.47;;
20870;SDS011;10595;51.218;3.452;2023-05-15T03:01:44;96.63;;;41.13;;
20870;SDS011;10595;51.218;3.452;2023-05-15T03:04:11;97.70;;;42.23;;
20870;SDS011;10595;51.218;3.452;2023-05-15T03:06:37;101.80;;;42.67;;
20870;SDS011;10595;51.218;3.452;2023-05-15T03:09:03;100.73;;;42.43;;
20870;SDS011;10595;51.218;3.452;2023-05-15T03:11:29;100.17;;;40.90;;
20870;SDS011;10595;51.218;3.452;2023-05-15T03:13:55;101.87;;;41.77;;
20870;SDS011;10595;51.218;3.452;2023-05-15T03:16:21;97.07;;;41.80;;
20870;SDS011;10595;51.218;3.452;2023-05-15T03:18:47;100.90;;;42.13;;
20870;SDS011;10595;51.218;3.452;2023-05-15T03:21:13;106.90;;;43.93;;
20870;SDS011;10595;51.218;3.452;2023-05-15T03:23:39;104.77;;;43.43;;
20870;SDS011;10595;51.218;3.452;2023-05-15T03:26:05;98.97;;;42.73;;
20870;SDS011;10595;51.218;3.452;2023-05-15T03:28:31;102.27;;;41.97;;
20870;SDS011;10595;51.218;3.452;2023-05-15T03:30:57;98.87;;;41.03;;
20870;SDS011;10595;51.218;3.452;2023-05-15T03:33:23;101.57;;;42.40;;
20870;SDS011;10595;51.218;3.452;2023-05-15T03:35:49;99.90;;;42.90;;
20870;SDS011;10595;51.218;3.452;2023-05-15T03:38:16;102.43;;;42.60;;
20870;SDS011;10595;51.218;3.452;2023-05-15T03:40:42;106.93;;;41.93;;
20870;SDS011;10595;51.218;3.452;2023-05-15T03:43:08;107.47;;;43.10;;
20870;SDS011;10595;51.218;3.452;2023-05-15T03:45:34;104.17;;;42.57;;
20870;SDS011;10595;51.218;3.452;2023-05-15T03:48:00;113.53;;;43.43;;
20870;SDS011;10595;51.218;3.452;2023-05-15T03:50:27;112.70;;;44.20;;
20870;SDS011;10595;51.218;3.452;2023-05-15T03:52:53;111.03;;;44.47;;
20870;SDS011;10595;51.218;3.452;2023-05-15T03:55:19;120.30;;;45.83;;
20870;SDS011;10595;51.218;3.452;2023-05-15T03:57:45;136.07;;;47.30;;
20870;SDS011;10595;51.218;3.452;2023-05-15T04:00:11;119.37;;;45.40;;
20870;SDS011;10595;51.218;3.452;2023-05-15T04:02:37;127.20;;;47.07;;
20870;SDS011;10595;51.218;3.452;2023-05-15T04:05:04;121.93;;;47.97;;
20870;SDS011;10595;51.218;3.452;2023-05-15T04:07:34;131.57;;;49.80;;
20870;SDS011;10595;51.218;3.452;2023-05-15T04:10:01;137.03;;;49.20;;
20870;SDS011;10595;51.218;3.452;2023-05-15T04:12:27;154.60;;;50.50;;
20870;SDS011;10595;51.218;3.452;2023-05-15T04:14:54;144.90;;;48.83;;
20870;SDS011;10595;51.218;3.452;2023-05-15T04:17:20;150.63;;;52.40;;
20870;SDS011;10595;51.218;3.452;2023-05-15T04:19:46;144.23;;;49.13;;
20870;SDS011;10595;51.218;3.452;2023-05-15T04:22:12;146.30;;;50.30;;
20870;SDS011;10595;51.218;3.452;2023-05-15T04:24:38;151.60;;;50.40;;
20870;SDS011;10595;51.218;3.452;2023-05-15T04:27:04;158.40;;;51.27;;
20870;SDS011;10595;51.218;3.452;2023-05-15T04:29:31;165.47;;;51.50;;
20870;SDS011;10595;51.218;3.452;2023-05-15T04:31:57;160.40;;;51.17;;
20870;SDS011;10595;51.218;3.452;2023-05-15T04:34:23;166.97;;;52.77;;
20870;SDS011;10595;51.218;3.452;2023-05-15T04:36:49;155.07;;;51.43;;
20870;SDS011;10595;51.218;3.452;2023-05-15T04:39:15;148.73;;;49.40;;
20870;SDS011;10595;51.218;3.452;2023-05-15T04:41:41;146.53;;;48.67;;
20870;SDS011;10595;51.218;3.452;2023-05-15T04:44:07;142.73;;;48.47;;
20870;SDS011;10595;51.218;3.452;2023-05-15T04:46:33;144.57;;;46.93;;
20870;SDS011;10595;51.218;3.452;2023-05-15T04:49:01;141.00;;;46.87;;
20870;SDS011;10595;51.218;3.452;2023-05-15T04:51:27;140.67;;;46.10;;
20870;SDS011;10595;51.218;3.452;2023-05-15T04:53:53;143.93;;;43.87;;
20870;SDS011;10595;51.218;3.452;2023-05-15T04:56:19;129.53;;;43.93;;
20870;SDS011;10595;51.218;3.452;2023-05-15T04:58:45;133.30;;;44.60;;
20870;SDS011;10595;51.218;3.452;2023-05-15T05:01:11;137.73;;;45.27;;
20870;SDS011;10595;51.218;3.452;2023-05-15T05:03:37;147.73;;;45.37;;
20870;SDS011;10595;51.218;3.452;2023-05-15T05:06:03;148.93;;;47.97;;
20870;SDS011;10595;51.218;3.452;2023-05-15T05:08:29;146.73;;;45.53;;
20870;SDS011;10595;51.218;3.452;2023-05-15T05:10:55;145.57;;;46.10;;
20870;SDS011;10595;51.218;3.452;2023-05-15T05:13:21;154.80;;;47.90;;
20870;SDS011;10595;51.218;3.452;2023-05-15T05:15:48;161.90;;;46.73;;
20870;SDS011;10595;51.218;3.452;2023-05-15T05:18:13;143.40;;;44.60;;
20870;SDS011;10595;51.218;3.452;2023-05-15T05:20:40;143.03;;;43.97;;
20870;SDS011;10595;51.218;3.452;2023-05-15T05:23:05;148.50;;;45.23;;
20870;SDS011;10595;51.218;3.452;2023-05-15T05:25:31;149.67;;;44.23;;
20870;SDS011;10595;51.218;3.452;2023-05-15T05:27:57;148.33;;;42.60;;
20870;SDS011;10595;51.218;3.452;2023-05-15T05:30:23;148.43;;;45.47;;
20870;SDS011;10595;51.218;3.452;2023-05-15T05:32:49;155.07;;;43.47;;
20870;SDS011;10595;51.218;3.452;2023-05-15T05:35:15;153.63;;;42.37;;
20870;SDS011;10595;51.218;3.452;2023-05-15T05:37:41;156.10;;;41.10;;
20870;SDS011;10595;51.218;3.452;2023-05-15T05:40:08;154.67;;;42.90;;
20870;SDS011;10595;51.218;3.452;2023-05-15T05:42:34;152.60;;;41.70;;
20870;SDS011;10595;51.218;3.452;2023-05-15T05:45:00;152.13;;;41.33;;
20870;SDS011;10595;51.218;3.452;2023-05-15T05:47:26;146.53;;;40.87;;
20870;SDS011;10595;51.218;3.452;2023-05-15T05:49:52;146.80;;;42.70;;
20870;SDS011;10595;51.218;3.452;2023-05-15T05:52:19;145.27;;;42.90;;
20870;SDS011;10595;51.218;3.452;2023-05-15T05:54:45;139.97;;;42.90;;
20870;SDS011;10595;51.218;3.452;2023-05-15T05:57:12;147.57;;;44.20;;
20870;SDS011;10595;51.218;3.452;2023-05-15T05:59:38;150.57;;;42.73;;
20870;SDS011;10595;51.218;3.452;2023-05-15T06:02:04;156.80;;;44.90;;
20870;SDS011;10595;51.218;3.452;2023-05-15T06:04:31;159.40;;;42.57;;
20870;SDS011;10595;51.218;3.452;2023-05-15T06:06:58;137.67;;;41.97;;
20870;SDS011;10595;51.218;3.452;2023-05-15T06:09:24;140.63;;;41.13;;
20870;SDS011;10595;51.218;3.452;2023-05-15T06:11:50;145.87;;;41.80;;
20870;SDS011;10595;51.218;3.452;2023-05-15T06:14:16;155.13;;;45.60;;
20870;SDS011;10595;51.218;3.452;2023-05-15T06:16:42;152.67;;;43.40;;
20870;SDS011;10595;51.218;3.452;2023-05-15T06:19:08;152.00;;;44.10;;
20870;SDS011;10595;51.218;3.452;2023-05-15T06:21:34;157.43;;;46.63;;
20870;SDS011;10595;51.218;3.452;2023-05-15T06:24:00;156.77;;;46.70;;
20870;SDS011;10595;51.218;3.452;2023-05-15T06:26:26;153.00;;;45.50;;
20870;SDS011;10595;51.218;3.452;2023-05-15T06:28:52;159.83;;;45.70;;
20870;SDS011;10595;51.218;3.452;2023-05-15T06:31:18;169.13;;;48.30;;
20870;SDS011;10595;51.218;3.452;2023-05-15T06:33:44;162.47;;;47.00;;
20870;SDS011;10595;51.218;3.452;2023-05-15T06:36:10;169.43;;;48.20;;
20870;SDS011;10595;51.218;3.452;2023-05-15T06:38:36;160.20;;;49.07;;
20870;SDS011;10595;51.218;3.452;2023-05-15T06:41:02;160.70;;;48.37;;
20870;SDS011;10595;51.218;3.452;2023-05-15T06:43:28;160.93;;;47.93;;
20870;SDS011;10595;51.218;3.452;2023-05-15T06:45:54;155.60;;;46.30;;
20870;SDS011;10595;51.218;3.452;2023-05-15T06:48:20;159.93;;;47.50;;
20870;SDS011;10595;51.218;3.452;2023-05-15T06:50:46;143.73;;;44.77;;
20870;SDS011;10595;51.218;3.452;2023-05-15T06:53:12;145.57;;;43.53;;
20870;SDS011;10595;51.218;3.452;2023-05-15T06:55:38;149.57;;;45.67;;
20870;SDS011;10595;51.218;3.452;2023-05-15T06:58:04;146.77;;;43.83;;
20870;SDS011;10595;51.218;3.452;2023-05-15T07:00:30;129.03;;;41.67;;
20870;SDS011;10595;51.218;3.452;2023-05-15T07:02:56;123.20;;;41.03;;
20870;SDS011;10595;51.218;3.452;2023-05-15T07:05:22;124.40;;;41.80;;
20870;SDS011;10595;51.218;3.452;2023-05-15T07:07:48;123.13;;;42.17;;
20870;SDS011;10595;51.218;3.452;2023-05-15T07:10:14;120.93;;;41.80;;
20870;SDS011;10595;51.218;3.452;2023-05-15T07:12:40;116.33;;;41.77;;
20870;SDS011;10595;51.218;3.452;2023-05-15T07:15:06;112.67;;;40.97;;
20870;SDS011;10595;51.218;3.452;2023-05-15T07:17:33;109.03;;;39.87;;
20870;SDS011;10595;51.218;3.452;2023-05-15T07:19:59;112.87;;;41.27;;
20870;SDS011;10595;51.218;3.452;2023-05-15T07:22:28;111.53;;;41.40;;
20870;SDS011;10595;51.218;3.452;2023-05-15T07:24:54;103.43;;;41.47;;
20870;SDS011;10595;51.218;3.452;2023-05-15T07:27:20;110.87;;;40.37;;
20870;SDS011;10595;51.218;3.452;2023-05-15T07:29:46;109.53;;;38.67;;
20870;SDS011;10595;51.218;3.452;2023-05-15T07:32:12;102.60;;;38.20;;
20870;SDS011;10595;51.218;3.452;2023-05-15T07:34:38;104.53;;;37.73;;
20870;SDS011;10595;51.218;3.452;2023-05-15T07:37:04;101.60;;;39.80;;
20870;SDS011;10595;51.218;3.452;2023-05-15T07:39:30;82.80;;;35.43;;
20870;SDS011;10595;51.218;3.452;2023-05-15T07:41:56;87.40;;;35.83;;
20870;SDS011;10595;51.218;3.452;2023-05-15T07:44:22;88.07;;;35.33;;
20870;SDS011;10595;51.218;3.452;2023-05-15T07:46:48;90.93;;;38.10;;
20870;SDS011;10595;51.218;3.452;2023-05-15T07:49:14;86.70;;;36.80;;
20870;SDS011;10595;51.218;3.452;2023-05-15T07:51:40;94.77;;;38.70;;
20870;SDS011;10595;51.218;3.452;2023-05-15T07:54:06;85.27;;;37.07;;
20870;SDS011;10595;51.218;3.452;2023-05-15T07:56:32;85.10;;;35.90;;
20870;SDS011;10595;51.218;3.452;2023-05-15T07:58:58;76.13;;;34.77;;
20870;SDS011;10595;51.218;3.452;2023-05-15T08:01:24;73.97;;;34.90;;
20870;SDS011;10595;51.218;3.452;2023-05-15T08:03:50;71.97;;;34.03;;
20870;SDS011;10595;51.218;3.452;2023-05-15T08:06:16;70.37;;;32.77;;
20870;SDS011;10595;51.218;3.452;2023-05-15T08:08:42;68.50;;;31.73;;
20870;SDS011;10595;51.218;3.452;2023-05-15T08:11:08;70.50;;;32.97;;
20870;SDS011;10595;51.218;3.452;2023-05-15T08:13:34;72.33;;;31.93;;
20870;SDS011;10595;51.218;3.452;2023-05-15T08:16:00;65.77;;;30.43;;
20870;SDS011;10595;51.218;3.452;2023-05-15T08:18:26;72.80;;;32.53;;
20870;SDS011;10595;51.218;3.452;2023-05-15T08:20:52;71.50;;;32.37;;
20870;SDS011;10595;51.218;3.452;2023-05-15T08:23:18;67.67;;;30.43;;
20870;SDS011;10595;51.218;3.452;2023-05-15T08:25:44;69.57;;;30.10;;
20870;SDS011;10595;51.218;3.452;2023-05-15T08:28:10;69.27;;;31.23;;
20870;SDS011;10595;51.218;3.452;2023-05-15T08:30:36;62.03;;;28.47;;
20870;SDS011;10595;51.218;3.452;2023-05-15T08:33:02;73.70;;;28.30;;
20870;SDS011;10595;51.218;3.452;2023-05-15T08:35:28;65.07;;;27.30;;
20870;SDS011;10595;51.218;3.452;2023-05-15T08:37:55;63.63;;;28.67;;
20870;SDS011;10595;51.218;3.452;2023-05-15T08:40:22;64.30;;;28.07;;
20870;SDS011;10595;51.218;3.452;2023-05-15T08:42:54;66.47;;;29.53;;
20870;SDS011;10595;51.218;3.452;2023-05-15T08:45:20;69.73;;;28.73;;
20870;SDS011;10595;51.218;3.452;2023-05-15T08:47:47;71.50;;;28.93;;
20870;SDS011;10595;51.218;3.452;2023-05-15T08:50:14;64.07;;;27.93;;
20870;SDS011;10595;51.218;3.452;2023-05-15T08:52:44;77.17;;;29.37;;
20870;SDS011;10595;51.218;3.452;2023-05-15T08:55:11;72.50;;;29.70;;
20870;SDS011;10595;51.218;3.452;2023-05-15T08:57:39;70.67;;;28.93;;
20870;SDS011;10595;51.218;3.452;2023-05-15T09:00:05;70.63;;;29.10;;
20870;SDS011;10595;51.218;3.452;2023-05-15T09:02:36;72.00;;;27.87;;
20870;SDS011;10595;51.218;3.452;2023-05-15T09:05:03;69.33;;;27.33;;
20870;SDS011;10595;51.218;3.452;2023-05-15T09:07:30;73.07;;;27.87;;
20870;SDS011;10595;51.218;3.452;2023-05-15T09:09:57;66.90;;;26.67;;
20870;SDS011;10595;51.218;3.452;2023-05-15T09:12:23;67.13;;;26.80;;
20870;SDS011;10595;51.218;3.452;2023-05-15T09:14:49;69.93;;;28.10;;
20870;SDS011;10595;51.218;3.452;2023-05-15T09:17:15;67.67;;;28.53;;
20870;SDS011;10595;51.218;3.452;2023-05-15T09:19:42;87.87;;;27.40;;
20870;SDS011;10595;51.218;3.452;2023-05-15T09:24:41;71.30;;;28.57;;
20870;SDS011;10595;51.218;3.452;2023-05-15T09:27:07;68.43;;;29.10;;
20870;SDS011;10595;51.218;3.452;2023-05-15T09:29:35;70.37;;;29.17;;
20870;SDS011;10595;51.218;3.452;2023-05-15T09:32:02;77.70;;;30.23;;
20870;SDS011;10595;51.218;3.452;2023-05-15T09:34:29;76.03;;;29.50;;
20870;SDS011;10595;51.218;3.452;2023-05-15T09:36:56;99.83;;;30.90;;
20870;SDS011;10595;51.218;3.452;2023-05-15T09:39:22;72.97;;;27.43;;
20870;SDS011;10595;51.218;3.452;2023-05-15T09:41:48;74.10;;;29.17;;
20870;SDS011;10595;51.218;3.452;2023-05-15T09:44:17;69.73;;;28.03;;
20870;SDS011;10595;51.218;3.452;2023-05-15T09:46:44;74.90;;;27.90;;
20870;SDS011;10595;51.218;3.452;2023-05-15T09:49:11;73.87;;;27.00;;
20870;SDS011;10595;51.218;3.452;2023-05-15T09:51:37;77.27;;;27.37;;
20870;SDS011;10595;51.218;3.452;2023-05-15T09:54:04;60.27;;;25.90;;
20870;SDS011;10595;51.218;3.452;2023-05-15T09:56:31;63.20;;;23.93;;
20870;SDS011;10595;51.218;3.452;2023-05-15T09:58:57;62.47;;;23.50;;
20870;SDS011;10595;51.218;3.452;2023-05-15T10:01:24;59.07;;;24.13;;
20870;SDS011;10595;51.218;3.452;2023-05-15T10:06:23;59.93;;;23.00;;
20870;SDS011;10595;51.218;3.452;2023-05-15T10:08:52;57.07;;;21.17;;
20870;SDS011;10595;51.218;3.452;2023-05-15T10:11:19;56.90;;;20.90;;
20870;SDS011;10595;51.218;3.452;2023-05-15T10:13:48;53.63;;;21.83;;
20870;SDS011;10595;51.218;3.452;2023-05-15T10:16:14;52.10;;;21.50;;
20870;SDS011;10595;51.218;3.452;2023-05-15T10:18:43;63.83;;;19.37;;
20870;SDS011;10595;51.218;3.452;2023-05-15T10:21:09;27.67;;;11.00;;
20870;SDS011;10595;51.218;3.452;2023-05-15T10:23:36;9.20;;;4.20;;
20870;SDS011;10595;51.218;3.452;2023-05-15T10:26:39;9.07;;;3.77;;
20870;SDS011;10595;51.218;3.452;2023-05-15T10:28:58;12.53;;;3.87;;
20870;SDS011;10595;51.218;3.452;2023-05-15T10:31:24;13.20;;;4.30;;
20870;SDS011;10595;51.218;3.452;2023-05-15T10:33:51;6.73;;;2.70;;
20870;SDS011;10595;51.218;3.452;2023-05-15T10:36:17;4.27;;;2.70;;
20870;SDS011;10595;51.218;3.452;2023-05-15T10:38:44;10.83;;;2.60;;
20870;SDS011;10595;51.218;3.452;2023-05-15T10:41:11;8.87;;;2.70;;
20870;SDS011;10595;51.218;3.452;2023-05-15T10:43:38;14.47;;;3.17;;
20870;SDS011;10595;51.218;3.452;2023-05-15T10:46:04;12.90;;;3.30;;
20870;SDS011;10595;51.218;3.452;2023-05-15T10:48:31;6.37;;;2.50;;
20870;SDS011;10595;51.218;3.452;2023-05-15T10:51:01;7.40;;;2.83;;
20870;SDS011;10595;51.218;3.452;2023-05-15T10:53:27;11.23;;;2.93;;
20870;SDS011;10595;51.218;3.452;2023-05-15T10:55:53;10.27;;;3.27;;
20870;SDS011;10595;51.218;3.452;2023-05-15T10:58:21;8.87;;;2.90;;
20870;SDS011;10595;51.218;3.452;2023-05-15T11:00:47;13.80;;;3.17;;
20870;SDS011;10595;51.218;3.452;2023-05-15T11:03:13;10.87;;;3.10;;
20870;SDS011;10595;51.218;3.452;2023-05-15T11:08:25;12.80;;;3.17;;
20870;SDS011;10595;51.218;3.452;2023-05-15T11:10:51;13.93;;;2.97;;
20870;SDS011;10595;51.218;3.452;2023-05-15T11:13:18;12.80;;;3.20;;
20870;SDS011;10595;51.218;3.452;2023-05-15T11:15:45;11.50;;;2.50;;
20870;SDS011;10595;51.218;3.452;2023-05-15T11:18:11;15.43;;;2.97;;
20870;SDS011;10595;51.218;3.452;2023-05-15T11:20:38;11.07;;;2.77;;
20870;SDS011;10595;51.218;3.452;2023-05-15T11:23:05;11.47;;;2.40;;
20870;SDS011;10595;51.218;3.452;2023-05-15T11:25:31;10.87;;;2.33;;
20870;SDS011;10595;51.218;3.452;2023-05-15T11:27:57;9.63;;;2.70;;
20870;SDS011;10595;51.218;3.452;2023-05-15T11:33:03;6.70;;;2.70;;
20870;SDS011;10595;51.218;3.452;2023-05-15T11:35:42;6.67;;;2.57;;
20870;SDS011;10595;51.218;3.452;2023-05-15T11:41:37;11.60;;;3.27;;
20870;SDS011;10595;51.218;3.452;2023-05-15T11:43:32;8.87;;;3.57;;
20870;SDS011;10595;51.218;3.452;2023-05-15T11:46:04;9.87;;;3.20;;
20870;SDS011;10595;51.218;3.452;2023-05-15T11:48:34;12.70;;;3.37;;
20870;SDS011;10595;51.218;3.452;2023-05-15T11:51:02;11.80;;;3.50;;
20870;SDS011;10595;51.218;3.452;2023-05-15T11:53:29;10.77;;;3.50;;
20870;SDS011;10595;51.218;3.452;2023-05-15T11:55:55;9.73;;;3.23;;
20870;SDS011;10595;51.218;3.452;2023-05-15T11:58:22;12.33;;;3.33;;
20870;SDS011;10595;51.218;3.452;2023-05-15T12:00:49;8.93;;;3.93;;
20870;SDS011;10595;51.218;3.452;2023-05-15T12:03:25;12.73;;;3.77;;
20870;SDS011;10595;51.218;3.452;2023-05-15T12:05:52;11.37;;;3.67;;
20870;SDS011;10595;51.218;3.452;2023-05-15T12:08:18;11.30;;;3.20;;
20870;SDS011;10595;51.218;3.452;2023-05-15T12:10:45;9.83;;;3.30;;
20870;SDS011;10595;51.218;3.452;2023-05-15T12:13:12;13.27;;;3.70;;
20870;SDS011;10595;51.218;3.452;2023-05-15T12:15:39;11.00;;;3.80;;
20870;SDS011;10595;51.218;3.452;2023-05-15T12:18:06;14.77;;;3.77;;
20870;SDS011;10595;51.218;3.452;2023-05-15T12:20:35;10.27;;;3.60;;
20870;SDS011;10595;51.218;3.452;2023-05-15T12:23:05;13.17;;;4.80;;
20870;SDS011;10595;51.218;3.452;2023-05-15T12:25:32;11.00;;;3.90;;
20870;SDS011;10595;51.218;3.452;2023-05-15T12:27:59;14.60;;;3.80;;
20870;SDS011;10595;51.218;3.452;2023-05-15T12:30:25;11.40;;;4.00;;
20870;SDS011;10595;51.218;3.452;2023-05-15T12:32:52;11.47;;;3.80;;
20870;SDS011;10595;51.218;3.452;2023-05-15T12:35:18;16.60;;;3.83;;
20870;SDS011;10595;51.218;3.452;2023-05-15T12:37:44;15.90;;;4.20;;
20870;SDS011;10595;51.218;3.452;2023-05-15T12:40:10;11.07;;;3.93;;
20870;SDS011;10595;51.218;3.452;2023-05-15T12:42:40;13.27;;;4.10;;
20870;SDS011;10595;51.218;3.452;2023-05-15T12:45:13;16.53;;;3.97;;
20870;SDS011;10595;51.218;3.452;2023-05-15T12:47:40;14.33;;;3.87;;
20870;SDS011;10595;51.218;3.452;2023-05-15T12:50:13;10.57;;;4.47;;
20870;SDS011;10595;51.218;3.452;2023-05-15T12:52:44;14.37;;;3.77;;
20870;SDS011;10595;51.218;3.452;2023-05-15T12:55:14;12.20;;;4.07;;
20870;SDS011;10595;51.218;3.452;2023-05-15T12:57:40;10.43;;;4.43;;
20870;SDS011;10595;51.218;3.452;2023-05-15T13:00:09;14.53;;;3.90;;
20870;SDS011;10595;51.218;3.452;2023-05-15T13:02:35;9.20;;;4.57;;
20870;SDS011;10595;51.218;3.452;2023-05-15T13:05:01;15.47;;;4.47;;
20870;SDS011;10595;51.218;3.452;2023-05-15T13:07:28;13.47;;;3.87;;
20870;SDS011;10595;51.218;3.452;2023-05-15T13:10:04;10.93;;;3.83;;
20870;SDS011;10595;51.218;3.452;2023-05-15T13:12:37;18.67;;;4.33;;
20870;SDS011;10595;51.218;3.452;2023-05-15T13:15:04;10.27;;;4.43;;
20870;SDS011;10595;51.218;3.452;2023-05-15T13:17:31;21.53;;;5.13;;
20870;SDS011;10595;51.218;3.452;2023-05-15T13:19:59;11.77;;;3.93;;
20870;SDS011;10595;51.218;3.452;2023-05-15T13:22:25;11.33;;;4.00;;
20870;SDS011;10595;51.218;3.452;2023-05-15T13:24:51;12.90;;;4.00;;
20870;SDS011;10595;51.218;3.452;2023-05-15T13:27:17;12.27;;;4.73;;
20870;SDS011;10595;51.218;3.452;2023-05-15T13:29:44;11.90;;;4.90;;
20870;SDS011;10595;51.218;3.452;2023-05-15T13:32:10;15.97;;;4.37;;
20870;SDS011;10595;51.218;3.452;2023-05-15T13:34:36;6.70;;;4.03;;
20870;SDS011;10595;51.218;3.452;2023-05-15T13:37:02;11.50;;;3.93;;
20870;SDS011;10595;51.218;3.452;2023-05-15T13:39:28;10.07;;;3.90;;
20870;SDS011;10595;51.218;3.452;2023-05-15T13:41:54;11.80;;;4.13;;
20870;SDS011;10595;51.218;3.452;2023-05-15T13:44:20;12.03;;;4.27;;
20870;SDS011;10595;51.218;3.452;2023-05-15T13:46:46;10.67;;;4.00;;
20870;SDS011;10595;51.218;3.452;2023-05-15T13:49:12;13.90;;;4.47;;
20870;SDS011;10595;51.218;3.452;2023-05-15T13:51:38;12.70;;;3.83;;
20870;SDS011;10595;51.218;3.452;2023-05-15T13:54:04;9.20;;;3.73;;
20870;SDS011;10595;51.218;3.452;2023-05-15T13:56:30;14.23;;;4.17;;
20870;SDS011;10595;51.218;3.452;2023-05-15T13:58:56;15.37;;;4.67;;
20870;SDS011;10595;51.218;3.452;2023-05-15T14:01:22;6.97;;;4.57;;
20870;SDS011;10595;51.218;3.452;2023-05-15T14:03:48;9.83;;;3.63;;
20870;SDS011;10595;51.218;3.452;2023-05-15T14:06:14;7.17;;;3.10;;
20870;SDS011;10595;51.218;3.452;2023-05-15T14:08:40;8.77;;;3.80;;
20870;SDS011;10595;51.218;3.452;2023-05-15T14:11:06;10.37;;;3.60;;
20870;SDS011;10595;51.218;3.452;2023-05-15T14:13:32;7.53;;;3.13;;
20870;SDS011;10595;51.218;3.452;2023-05-15T14:15:58;8.53;;;3.87;;
20870;SDS011;10595;51.218;3.452;2023-05-15T14:18:24;11.37;;;3.70;;
20870;SDS011;10595;51.218;3.452;2023-05-15T14:20:50;10.87;;;4.03;;
20870;SDS011;10595;51.218;3.452;2023-05-15T14:23:17;7.03;;;3.53;;
20870;SDS011;10595;51.218;3.452;2023-05-15T14:25:43;9.43;;;3.80;;
20870;SDS011;10595;51.218;3.452;2023-05-15T14:28:09;17.07;;;4.93;;
20870;SDS011;10595;51.218;3.452;2023-05-15T14:30:36;11.67;;;4.83;;
20870;SDS011;10595;51.218;3.452;2023-05-15T14:33:02;12.60;;;3.97;;
20870;SDS011;10595;51.218;3.452;2023-05-15T14:35:28;11.67;;;3.83;;
20870;SDS011;10595;51.218;3.452;2023-05-15T14:37:54;8.47;;;2.97;;
20870;SDS011;10595;51.218;3.452;2023-05-15T14:40:21;10.73;;;2.90;;
20870;SDS011;10595;51.218;3.452;2023-05-15T14:42:47;12.43;;;3.20;;